الصفحة الرئيسية
METAR-TAF:

METAR-TAF

مطار :

كوراساو, جزر الأنتيل الهولندية

دائرة عرض: 12-12N, خط طول: 068-58W, ارتفاع: 9 متر

مراقبة الطقس الحالي

تاريخ ووقت الإصدار 29 دقيقة قبل الساعة 03:00UTC
ريح 14 عقدة من الشرق
درجة الحرارة 28°درجة مئوية
الرطوبة 79%
ضغط 1011 hPa
الرؤية 10 كم أو أكثر
غيوم قليلة على ارتفاع 1700 قدم

METAR: TNCC 240300Z 10014KT 9999 FEW017 28/24 Q1011 NOSIG

زمن: 23:29 (03:29 UTC)

توقعات

تاريخ ووقت الإصدار 5ساعات و 29 دقيقة قبل الساعة 22:00UTC
التوقعات صالحة من24 الساعة 00 UTC إلى 24 الساعة 24 UTC
ريح 13 عقدة من الشرق/الجنوب الشرقي
الرؤية 10 كم أو أكثر
غيوم متفرقة على ارتفاع 1800 قدم
نظرية الاحتمالات 30% :
مؤقت
من 24 الساعة 06 UTC إلى 24 الساعة 17 UTC
الرؤية: 6000 متر
غيوم مفككة على ارتفاع 1400 قدم
زخات من المطر

TAF: TNCC 232200Z 2400/2424 11013KT 9999 SCT018 PROB30 TEMPO 2406/2417 6000 SHRA BKN014

أرصاد الطقس والتوقعات من أكثر من 4000 مطار (تقارير الطقس للمطار METAR والتنبؤ بالطقس بالمطارTAF).

المحطات المتاحة هي النقط الصفراء والحمراء على الخريطة.

حرك المؤشر فوق النقطة لمعرفة اسم المحطة.

ثم انقر لمعرفة أرصاد وتوقعات الطقس.

لتغيير الخارطة: اضغط على الأزرار الخضراء مع رمز الصليب الأسود للتكبير. على الزر الأخضر مع شرطة للتصغير، أو على الأسهم الخضراء للخرائط المجاورة.


METAR-TAF: